sensor_id;sensor_type;location;lat;lon;timestamp;temperature;humidity
80743;SHT31;70142;50.894;6.052;2023-08-07T00:02:14;13.46;81.70
80743;SHT31;70142;50.894;6.052;2023-08-07T00:04:47;13.51;81.26
80743;SHT31;70142;50.894;6.052;2023-08-07T00:07:20;13.49;81.46
80743;SHT31;70142;50.894;6.052;2023-08-07T00:09:53;13.53;81.61
80743;SHT31;70142;50.894;6.052;2023-08-07T00:12:26;13.56;81.51
80743;SHT31;70142;50.894;6.052;2023-08-07T00:15:01;13.55;81.09
80743;SHT31;70142;50.894;6.052;2023-08-07T00:17:34;13.55;81.33
80743;SHT31;70142;50.894;6.052;2023-08-07T00:20:08;13.45;80.92
80743;SHT31;70142;50.894;6.052;2023-08-07T00:22:41;13.42;80.95
80743;SHT31;70142;50.894;6.052;2023-08-07T00:25:14;13.43;81.21
80743;SHT31;70142;50.894;6.052;2023-08-07T00:27:48;13.45;81.20
80743;SHT31;70142;50.894;6.052;2023-08-07T00:30:23;13.56;81.39
80743;SHT31;70142;50.894;6.052;2023-08-07T00:32:56;13.58;80.89
80743;SHT31;70142;50.894;6.052;2023-08-07T00:35:32;13.52;81.11
80743;SHT31;70142;50.894;6.052;2023-08-07T00:38:06;13.53;81.40
80743;SHT31;70142;50.894;6.052;2023-08-07T00:40:40;13.56;81.44
80743;SHT31;70142;50.894;6.052;2023-08-07T00:43:13;13.55;81.21
80743;SHT31;70142;50.894;6.052;2023-08-07T00:45:48;13.53;81.43
80743;SHT31;70142;50.894;6.052;2023-08-07T00:48:22;13.55;81.19
80743;SHT31;70142;50.894;6.052;2023-08-07T00:50:56;13.59;81.04
80743;SHT31;70142;50.894;6.052;2023-08-07T00:53:30;13.58;80.89
80743;SHT31;70142;50.894;6.052;2023-08-07T00:56:04;13.52;80.83
80743;SHT31;70142;50.894;6.052;2023-08-07T00:58:37;13.52;81.02
80743;SHT31;70142;50.894;6.052;2023-08-07T01:01:12;13.59;81.21
80743;SHT31;70142;50.894;6.052;2023-08-07T01:03:46;13.58;81.01
80743;SHT31;70142;50.894;6.052;2023-08-07T01:06:19;13.62;80.55
80743;SHT31;70142;50.894;6.052;2023-08-07T01:08:55;13.65;80.53
80743;SHT31;70142;50.894;6.052;2023-08-07T01:11:36;13.65;80.47
80743;SHT31;70142;50.894;6.052;2023-08-07T01:14:20;13.56;80.68
80743;SHT31;70142;50.894;6.052;2023-08-07T01:17:02;13.62;80.76
80743;SHT31;70142;50.894;6.052;2023-08-07T01:19:38;13.55;80.44
80743;SHT31;70142;50.894;6.052;2023-08-07T01:22:15;13.55;80.07
80743;SHT31;70142;50.894;6.052;2023-08-07T01:24:49;13.59;80.58
80743;SHT31;70142;50.894;6.052;2023-08-07T01:27:35;13.59;80.46
80743;SHT31;70142;50.894;6.052;2023-08-07T01:30:17;13.70;80.32
80743;SHT31;70142;50.894;6.052;2023-08-07T01:32:59;13.58;80.24
80743;SHT31;70142;50.894;6.052;2023-08-07T01:35:41;13.59;80.39
80743;SHT31;70142;50.894;6.052;2023-08-07T01:38:19;13.62;80.50
80743;SHT31;70142;50.894;6.052;2023-08-07T01:40:54;13.53;80.58
80743;SHT31;70142;50.894;6.052;2023-08-07T01:43:29;13.58;80.74
80743;SHT31;70142;50.894;6.052;2023-08-07T01:46:05;13.45;80.84
80743;SHT31;70142;50.894;6.052;2023-08-07T01:48:39;13.59;81.33
80743;SHT31;70142;50.894;6.052;2023-08-07T01:51:12;13.59;80.86
80743;SHT31;70142;50.894;6.052;2023-08-07T01:53:46;13.45;80.99
80743;SHT31;70142;50.894;6.052;2023-08-07T01:56:20;13.58;81.12
80743;SHT31;70142;50.894;6.052;2023-08-07T01:58:54;13.46;80.73
80743;SHT31;70142;50.894;6.052;2023-08-07T02:01:27;13.49;81.04
80743;SHT31;70142;50.894;6.052;2023-08-07T02:04:00;13.53;80.79
80743;SHT31;70142;50.894;6.052;2023-08-07T02:06:33;13.51;80.62
80743;SHT31;70142;50.894;6.052;2023-08-07T02:09:08;13.56;80.46
80743;SHT31;70142;50.894;6.052;2023-08-07T02:11:41;13.59;80.60
80743;SHT31;70142;50.894;6.052;2023-08-07T02:14:16;13.56;80.71
80743;SHT31;70142;50.894;6.052;2023-08-07T02:16:49;13.52;80.73
80743;SHT31;70142;50.894;6.052;2023-08-07T02:19:22;13.46;80.98
80743;SHT31;70142;50.894;6.052;2023-08-07T02:21:55;13.46;80.63
80743;SHT31;70142;50.894;6.052;2023-08-07T02:24:30;13.39;81.17
80743;SHT31;70142;50.894;6.052;2023-08-07T02:27:04;13.39;81.13
80743;SHT31;70142;50.894;6.052;2023-08-07T02:29:37;13.38;81.05
80743;SHT31;70142;50.894;6.052;2023-08-07T02:32:10;13.36;81.19
80743;SHT31;70142;50.894;6.052;2023-08-07T02:34:44;13.38;81.57
80743;SHT31;70142;50.894;6.052;2023-08-07T02:37:17;13.38;81.02
80743;SHT31;70142;50.894;6.052;2023-08-07T02:39:54;13.34;81.50
80743;SHT31;70142;50.894;6.052;2023-08-07T02:42:27;13.22;82.10
80743;SHT31;70142;50.894;6.052;2023-08-07T02:45:00;13.22;82.34
80743;SHT31;70142;50.894;6.052;2023-08-07T02:47:34;13.19;82.82
80743;SHT31;70142;50.894;6.052;2023-08-07T02:50:08;13.16;83.31
80743;SHT31;70142;50.894;6.052;2023-08-07T02:52:41;13.14;83.24
80743;SHT31;70142;50.894;6.052;2023-08-07T02:55:18;13.16;83.26
80743;SHT31;70142;50.894;6.052;2023-08-07T02:57:51;13.12;83.70
80743;SHT31;70142;50.894;6.052;2023-08-07T03:00:24;13.02;83.99
80743;SHT31;70142;50.894;6.052;2023-08-07T03:02:58;12.99;83.96
80743;SHT31;70142;50.894;6.052;2023-08-07T03:05:31;13.02;84.43
80743;SHT31;70142;50.894;6.052;2023-08-07T03:08:04;13.04;84.49
80743;SHT31;70142;50.894;6.052;2023-08-07T03:10:39;13.02;84.83
80743;SHT31;70142;50.894;6.052;2023-08-07T03:13:12;12.97;84.84
80743;SHT31;70142;50.894;6.052;2023-08-07T03:15:45;12.92;85.17
80743;SHT31;70142;50.894;6.052;2023-08-07T03:18:21;12.98;84.85
80743;SHT31;70142;50.894;6.052;2023-08-07T03:20:54;12.97;84.54
80743;SHT31;70142;50.894;6.052;2023-08-07T03:23:28;12.95;84.28
80743;SHT31;70142;50.894;6.052;2023-08-07T03:26:07;12.89;84.26
80743;SHT31;70142;50.894;6.052;2023-08-07T03:28:44;12.85;84.43
80743;SHT31;70142;50.894;6.052;2023-08-07T03:31:19;12.84;84.49
80743;SHT31;70142;50.894;6.052;2023-08-07T03:33:53;12.91;84.48
80743;SHT31;70142;50.894;6.052;2023-08-07T03:36:26;12.87;83.65
80743;SHT31;70142;50.894;6.052;2023-08-07T03:38:59;12.92;84.18
80743;SHT31;70142;50.894;6.052;2023-08-07T03:41:34;12.97;83.77
80743;SHT31;70142;50.894;6.052;2023-08-07T03:44:07;13.05;83.33
80743;SHT31;70142;50.894;6.052;2023-08-07T03:46:40;13.07;83.26
80743;SHT31;70142;50.894;6.052;2023-08-07T03:49:16;12.88;83.13
80743;SHT31;70142;50.894;6.052;2023-08-07T03:51:50;12.92;83.29
80743;SHT31;70142;50.894;6.052;2023-08-07T03:54:24;12.98;83.27
80743;SHT31;70142;50.894;6.052;2023-08-07T03:56:58;12.97;82.81
80743;SHT31;70142;50.894;6.052;2023-08-07T03:59:32;13.09;83.14
80743;SHT31;70142;50.894;6.052;2023-08-07T04:02:05;13.05;82.34
80743;SHT31;70142;50.894;6.052;2023-08-07T04:04:38;13.04;82.49
80743;SHT31;70142;50.894;6.052;2023-08-07T04:07:11;12.94;82.43
80743;SHT31;70142;50.894;6.052;2023-08-07T04:09:45;12.92;82.35
80743;SHT31;70142;50.894;6.052;2023-08-07T04:12:19;12.99;82.26
80743;SHT31;70142;50.894;6.052;2023-08-07T04:14:52;12.98;81.80
80743;SHT31;70142;50.894;6.052;2023-08-07T04:17:26;13.02;81.73
80743;SHT31;70142;50.894;6.052;2023-08-07T04:19:59;13.04;81.42
80743;SHT31;70142;50.894;6.052;2023-08-07T04:22:32;13.02;81.66
80743;SHT31;70142;50.894;6.052;2023-08-07T04:25:06;13.11;81.39
80743;SHT31;70142;50.894;6.052;2023-08-07T04:27:42;13.12;80.83
80743;SHT31;70142;50.894;6.052;2023-08-07T04:30:15;13.08;80.64
80743;SHT31;70142;50.894;6.052;2023-08-07T04:32:49;13.07;80.96
80743;SHT31;70142;50.894;6.052;2023-08-07T04:35:22;13.05;80.18
80743;SHT31;70142;50.894;6.052;2023-08-07T04:37:55;13.02;80.56
80743;SHT31;70142;50.894;6.052;2023-08-07T04:40:29;12.92;80.77
80743;SHT31;70142;50.894;6.052;2023-08-07T04:43:03;13.01;80.72
80743;SHT31;70142;50.894;6.052;2023-08-07T04:45:37;12.99;80.36
80743;SHT31;70142;50.894;6.052;2023-08-07T04:48:14;13.02;80.16
80743;SHT31;70142;50.894;6.052;2023-08-07T04:50:47;12.97;80.17
80743;SHT31;70142;50.894;6.052;2023-08-07T04:53:21;12.99;79.99
80743;SHT31;70142;50.894;6.052;2023-08-07T04:55:54;12.99;79.72
80743;SHT31;70142;50.894;6.052;2023-08-07T04:58:29;13.01;79.94
80743;SHT31;70142;50.894;6.052;2023-08-07T05:01:04;13.04;79.72
80743;SHT31;70142;50.894;6.052;2023-08-07T05:03:38;13.14;79.57
80743;SHT31;70142;50.894;6.052;2023-08-07T05:06:11;13.08;79.41
80743;SHT31;70142;50.894;6.052;2023-08-07T05:08:45;13.07;79.13
80743;SHT31;70142;50.894;6.052;2023-08-07T05:11:18;13.14;78.74
80743;SHT31;70142;50.894;6.052;2023-08-07T05:13:53;13.23;78.78
80743;SHT31;70142;50.894;6.052;2023-08-07T05:16:26;13.31;78.53
80743;SHT31;70142;50.894;6.052;2023-08-07T05:18:59;13.39;78.38
80743;SHT31;70142;50.894;6.052;2023-08-07T05:21:33;13.34;77.34
80743;SHT31;70142;50.894;6.052;2023-08-07T05:24:06;13.32;77.98
80743;SHT31;70142;50.894;6.052;2023-08-07T05:26:39;13.32;78.05
80743;SHT31;70142;50.894;6.052;2023-08-07T05:29:14;13.34;78.28
80743;SHT31;70142;50.894;6.052;2023-08-07T05:31:47;13.22;77.96
80743;SHT31;70142;50.894;6.052;2023-08-07T05:34:22;13.32;78.05
80743;SHT31;70142;50.894;6.052;2023-08-07T05:36:56;13.31;78.34
80743;SHT31;70142;50.894;6.052;2023-08-07T05:39:29;13.31;78.30
80743;SHT31;70142;50.894;6.052;2023-08-07T05:42:03;13.22;78.25
80743;SHT31;70142;50.894;6.052;2023-08-07T05:44:37;13.26;78.60
80743;SHT31;70142;50.894;6.052;2023-08-07T05:47:10;13.23;78.48
80743;SHT31;70142;50.894;6.052;2023-08-07T05:49:44;13.32;79.01
80743;SHT31;70142;50.894;6.052;2023-08-07T05:52:17;13.29;78.86
80743;SHT31;70142;50.894;6.052;2023-08-07T05:54:50;13.32;78.81
80743;SHT31;70142;50.894;6.052;2023-08-07T05:57:24;13.22;78.62
80743;SHT31;70142;50.894;6.052;2023-08-07T05:59:59;13.25;79.59
80743;SHT31;70142;50.894;6.052;2023-08-07T06:02:42;12.99;79.80
80743;SHT31;70142;50.894;6.052;2023-08-07T06:05:16;12.84;81.49
80743;SHT31;70142;50.894;6.052;2023-08-07T06:07:51;12.88;81.65
80743;SHT31;70142;50.894;6.052;2023-08-07T06:10:24;12.84;81.36
80743;SHT31;70142;50.894;6.052;2023-08-07T06:12:58;12.94;81.62
80743;SHT31;70142;50.894;6.052;2023-08-07T06:15:32;13.02;80.89
80743;SHT31;70142;50.894;6.052;2023-08-07T06:18:06;13.11;80.44
80743;SHT31;70142;50.894;6.052;2023-08-07T06:20:39;13.16;79.81
80743;SHT31;70142;50.894;6.052;2023-08-07T06:23:12;13.28;79.53
80743;SHT31;70142;50.894;6.052;2023-08-07T06:25:46;13.39;79.18
80743;SHT31;70142;50.894;6.052;2023-08-07T06:28:21;13.49;79.14
80743;SHT31;70142;50.894;6.052;2023-08-07T06:31:01;13.53;78.62
80743;SHT31;70142;50.894;6.052;2023-08-07T06:33:35;13.42;78.88
80743;SHT31;70142;50.894;6.052;2023-08-07T06:36:09;13.49;78.38
80743;SHT31;70142;50.894;6.052;2023-08-07T06:38:42;13.58;78.78
80743;SHT31;70142;50.894;6.052;2023-08-07T06:41:18;13.65;78.50
80743;SHT31;70142;50.894;6.052;2023-08-07T06:43:53;13.72;77.96
80743;SHT31;70142;50.894;6.052;2023-08-07T06:46:28;13.79;78.00
80743;SHT31;70142;50.894;6.052;2023-08-07T06:49:02;13.80;77.52
80743;SHT31;70142;50.894;6.052;2023-08-07T06:51:35;13.82;78.05
80743;SHT31;70142;50.894;6.052;2023-08-07T06:54:08;13.94;77.73
80743;SHT31;70142;50.894;6.052;2023-08-07T06:56:41;13.96;77.17
80743;SHT31;70142;50.894;6.052;2023-08-07T06:59:15;13.94;77.31
80743;SHT31;70142;50.894;6.052;2023-08-07T07:01:51;13.89;77.57
80743;SHT31;70142;50.894;6.052;2023-08-07T07:04:24;13.96;77.54
80743;SHT31;70142;50.894;6.052;2023-08-07T07:06:57;14.07;77.63
80743;SHT31;70142;50.894;6.052;2023-08-07T07:09:31;14.23;77.23
80743;SHT31;70142;50.894;6.052;2023-08-07T07:12:04;14.34;76.50
80743;SHT31;70142;50.894;6.052;2023-08-07T07:14:38;14.27;76.52
80743;SHT31;70142;50.894;6.052;2023-08-07T07:17:12;14.34;76.69
80743;SHT31;70142;50.894;6.052;2023-08-07T07:19:45;14.23;76.41
80743;SHT31;70142;50.894;6.052;2023-08-07T07:22:19;14.49;76.86
80743;SHT31;70142;50.894;6.052;2023-08-07T07:24:53;14.42;76.15
80743;SHT31;70142;50.894;6.052;2023-08-07T07:27:26;14.48;76.26
80743;SHT31;70142;50.894;6.052;2023-08-07T07:29:59;14.57;76.35
80743;SHT31;70142;50.894;6.052;2023-08-07T07:32:34;14.63;75.82
80743;SHT31;70142;50.894;6.052;2023-08-07T07:35:08;14.65;76.39
80743;SHT31;70142;50.894;6.052;2023-08-07T07:37:41;14.88;75.63
80743;SHT31;70142;50.894;6.052;2023-08-07T07:40:16;14.96;75.46
80743;SHT31;70142;50.894;6.052;2023-08-07T07:42:50;14.93;75.28
80743;SHT31;70142;50.894;6.052;2023-08-07T07:45:23;15.10;75.39
80743;SHT31;70142;50.894;6.052;2023-08-07T07:47:57;14.93;74.96
80743;SHT31;70142;50.894;6.052;2023-08-07T07:50:31;15.18;75.07
80743;SHT31;70142;50.894;6.052;2023-08-07T07:53:04;15.22;74.65
80743;SHT31;70142;50.894;6.052;2023-08-07T07:55:38;15.56;74.25
80743;SHT31;70142;50.894;6.052;2023-08-07T07:58:11;15.87;72.73
80743;SHT31;70142;50.894;6.052;2023-08-07T08:00:44;16.00;72.38
80743;SHT31;70142;50.894;6.052;2023-08-07T08:03:18;16.25;72.47
80743;SHT31;70142;50.894;6.052;2023-08-07T08:05:53;16.28;71.28
80743;SHT31;70142;50.894;6.052;2023-08-07T08:08:26;16.45;71.81
80743;SHT31;70142;50.894;6.052;2023-08-07T08:10:59;16.80;70.83
80743;SHT31;70142;50.894;6.052;2023-08-07T08:13:35;17.10;69.90
80743;SHT31;70142;50.894;6.052;2023-08-07T08:16:10;17.03;68.76
80743;SHT31;70142;50.894;6.052;2023-08-07T08:18:45;17.00;69.97
80743;SHT31;70142;50.894;6.052;2023-08-07T08:21:18;16.82;69.78
80743;SHT31;70142;50.894;6.052;2023-08-07T08:23:51;16.87;69.22
80743;SHT31;70142;50.894;6.052;2023-08-07T08:26:25;16.97;69.26
80743;SHT31;70142;50.894;6.052;2023-08-07T08:28:58;16.77;69.12
80743;SHT31;70142;50.894;6.052;2023-08-07T08:31:31;16.45;70.40
80743;SHT31;70142;50.894;6.052;2023-08-07T08:34:06;16.52;70.24
80743;SHT31;70142;50.894;6.052;2023-08-07T08:36:39;16.97;69.86
80743;SHT31;70142;50.894;6.052;2023-08-07T08:39:12;17.88;66.63
80743;SHT31;70142;50.894;6.052;2023-08-07T08:41:46;17.84;65.61
80743;SHT31;70142;50.894;6.052;2023-08-07T08:44:22;18.21;65.79
80743;SHT31;70142;50.894;6.052;2023-08-07T08:46:59;17.54;67.16
80743;SHT31;70142;50.894;6.052;2023-08-07T08:49:37;17.06;68.91
80743;SHT31;70142;50.894;6.052;2023-08-07T08:52:16;17.12;67.25
80743;SHT31;70142;50.894;6.052;2023-08-07T08:54:49;17.53;65.79
80743;SHT31;70142;50.894;6.052;2023-08-07T08:57:24;17.40;66.10
80743;SHT31;70142;50.894;6.052;2023-08-07T08:59:58;17.39;66.33
80743;SHT31;70142;50.894;6.052;2023-08-07T09:02:33;17.54;66.08
80743;SHT31;70142;50.894;6.052;2023-08-07T09:05:08;17.51;67.11
80743;SHT31;70142;50.894;6.052;2023-08-07T09:07:41;17.82;65.37
80743;SHT31;70142;50.894;6.052;2023-08-07T09:10:15;17.68;66.54
80743;SHT31;70142;50.894;6.052;2023-08-07T09:12:56;17.19;67.17
80743;SHT31;70142;50.894;6.052;2023-08-07T09:15:32;16.85;69.01
80743;SHT31;70142;50.894;6.052;2023-08-07T09:18:08;16.80;68.82
80743;SHT31;70142;50.894;6.052;2023-08-07T09:20:44;17.20;68.97
80743;SHT31;70142;50.894;6.052;2023-08-07T09:23:17;17.16;67.60
80743;SHT31;70142;50.894;6.052;2023-08-07T09:25:59;17.66;66.67
80743;SHT31;70142;50.894;6.052;2023-08-07T09:28:33;18.21;64.79
80743;SHT31;70142;50.894;6.052;2023-08-07T09:31:06;17.51;66.20
80743;SHT31;70142;50.894;6.052;2023-08-07T09:33:41;17.06;67.78
80743;SHT31;70142;50.894;6.052;2023-08-07T09:36:16;16.90;67.65
80743;SHT31;70142;50.894;6.052;2023-08-07T09:38:50;17.00;67.08
80743;SHT31;70142;50.894;6.052;2023-08-07T09:41:23;18.01;64.51
80743;SHT31;70142;50.894;6.052;2023-08-07T09:43:56;18.05;64.23
80743;SHT31;70142;50.894;6.052;2023-08-07T09:46:30;18.49;62.46
80743;SHT31;70142;50.894;6.052;2023-08-07T09:49:09;18.77;61.64
80743;SHT31;70142;50.894;6.052;2023-08-07T09:51:45;17.71;63.71
80743;SHT31;70142;50.894;6.052;2023-08-07T09:54:18;17.09;64.58
80743;SHT31;70142;50.894;6.052;2023-08-07T09:56:55;16.95;64.75
80743;SHT31;70142;50.894;6.052;2023-08-07T09:59:31;16.92;65.13
80743;SHT31;70142;50.894;6.052;2023-08-07T10:02:05;17.09;65.07
80743;SHT31;70142;50.894;6.052;2023-08-07T10:04:39;17.60;63.96
80743;SHT31;70142;50.894;6.052;2023-08-07T10:07:14;17.85;63.25
80743;SHT31;70142;50.894;6.052;2023-08-07T10:09:48;17.53;62.76
80743;SHT31;70142;50.894;6.052;2023-08-07T10:12:25;17.68;61.45
80743;SHT31;70142;50.894;6.052;2023-08-07T10:14:59;17.51;62.41
80743;SHT31;70142;50.894;6.052;2023-08-07T10:17:33;17.90;61.95
80743;SHT31;70142;50.894;6.052;2023-08-07T10:20:07;19.14;58.56
80743;SHT31;70142;50.894;6.052;2023-08-07T10:22:44;19.03;57.25
80743;SHT31;70142;50.894;6.052;2023-08-07T10:25:21;18.94;57.05
80743;SHT31;70142;50.894;6.052;2023-08-07T10:27:58;19.20;57.09
80743;SHT31;70142;50.894;6.052;2023-08-07T10:30:33;19.34;56.95
80743;SHT31;70142;50.894;6.052;2023-08-07T10:33:08;19.78;55.20
80743;SHT31;70142;50.894;6.052;2023-08-07T10:35:45;19.77;56.05
80743;SHT31;70142;50.894;6.052;2023-08-07T10:38:23;19.77;53.93
80743;SHT31;70142;50.894;6.052;2023-08-07T10:40:59;19.59;55.21
80743;SHT31;70142;50.894;6.052;2023-08-07T10:43:37;18.82;56.39
80743;SHT31;70142;50.894;6.052;2023-08-07T10:46:12;18.77;57.57
80743;SHT31;70142;50.894;6.052;2023-08-07T10:48:46;18.89;60.18
80743;SHT31;70142;50.894;6.052;2023-08-07T10:51:20;19.81;58.69
80743;SHT31;70142;50.894;6.052;2023-08-07T10:53:54;19.93;57.47
80743;SHT31;70142;50.894;6.052;2023-08-07T10:56:30;20.22;57.93
80743;SHT31;70142;50.894;6.052;2023-08-07T10:59:08;20.52;55.72
80743;SHT31;70142;50.894;6.052;2023-08-07T11:01:43;20.80;54.79
80743;SHT31;70142;50.894;6.052;2023-08-07T11:04:16;20.85;54.12
80743;SHT31;70142;50.894;6.052;2023-08-07T11:06:50;20.62;54.55
80743;SHT31;70142;50.894;6.052;2023-08-07T11:09:25;20.22;55.74
80743;SHT31;70142;50.894;6.052;2023-08-07T11:11:58;20.06;56.74
80743;SHT31;70142;50.894;6.052;2023-08-07T11:14:32;19.72;59.52
80743;SHT31;70142;50.894;6.052;2023-08-07T11:17:05;19.47;59.08
80743;SHT31;70142;50.894;6.052;2023-08-07T11:19:39;19.06;60.31
80743;SHT31;70142;50.894;6.052;2023-08-07T11:22:12;19.13;59.99
80743;SHT31;70142;50.894;6.052;2023-08-07T11:24:50;19.93;58.32
80743;SHT31;70142;50.894;6.052;2023-08-07T11:27:23;20.00;57.25
80743;SHT31;70142;50.894;6.052;2023-08-07T11:29:57;19.59;57.91
80743;SHT31;70142;50.894;6.052;2023-08-07T11:32:31;20.26;58.64
80743;SHT31;70142;50.894;6.052;2023-08-07T11:35:06;20.73;55.24
80743;SHT31;70142;50.894;6.052;2023-08-07T11:37:45;20.94;55.39
80743;SHT31;70142;50.894;6.052;2023-08-07T11:40:20;20.30;56.55
80743;SHT31;70142;50.894;6.052;2023-08-07T11:42:54;19.61;58.65
80743;SHT31;70142;50.894;6.052;2023-08-07T11:45:27;18.99;60.15
80743;SHT31;70142;50.894;6.052;2023-08-07T11:48:01;18.56;61.09
80743;SHT31;70142;50.894;6.052;2023-08-07T11:50:35;18.43;62.57
80743;SHT31;70142;50.894;6.052;2023-08-07T11:53:08;18.39;62.03
80743;SHT31;70142;50.894;6.052;2023-08-07T11:55:51;18.87;60.57
80743;SHT31;70142;50.894;6.052;2023-08-07T11:58:27;19.81;59.02
80743;SHT31;70142;50.894;6.052;2023-08-07T12:01:04;20.77;57.09
80743;SHT31;70142;50.894;6.052;2023-08-07T12:03:43;20.85;56.12
80743;SHT31;70142;50.894;6.052;2023-08-07T12:06:17;20.76;56.54
80743;SHT31;70142;50.894;6.052;2023-08-07T12:08:55;21.14;54.88
80743;SHT31;70142;50.894;6.052;2023-08-07T12:11:30;19.92;56.71
80743;SHT31;70142;50.894;6.052;2023-08-07T12:14:03;19.91;57.91
80743;SHT31;70142;50.894;6.052;2023-08-07T12:16:37;19.34;59.33
80743;SHT31;70142;50.894;6.052;2023-08-07T12:19:10;19.27;60.02
80743;SHT31;70142;50.894;6.052;2023-08-07T12:21:43;19.57;58.04
80743;SHT31;70142;50.894;6.052;2023-08-07T12:24:17;19.26;58.38
80743;SHT31;70142;50.894;6.052;2023-08-07T12:26:53;19.14;59.98
80743;SHT31;70142;50.894;6.052;2023-08-07T12:29:27;19.08;60.88
80743;SHT31;70142;50.894;6.052;2023-08-07T12:32:01;18.82;59.29
80743;SHT31;70142;50.894;6.052;2023-08-07T12:34:34;19.50;58.30
80743;SHT31;70142;50.894;6.052;2023-08-07T12:37:27;20.88;55.18
80743;SHT31;70142;50.894;6.052;2023-08-07T12:40:03;20.97;53.49
80743;SHT31;70142;50.894;6.052;2023-08-07T12:42:42;20.33;53.26
80743;SHT31;70142;50.894;6.052;2023-08-07T12:45:15;20.16;55.61
80743;SHT31;70142;50.894;6.052;2023-08-07T12:47:49;20.56;54.66
80743;SHT31;70142;50.894;6.052;2023-08-07T12:50:22;20.08;56.10
80743;SHT31;70142;50.894;6.052;2023-08-07T12:52:55;19.91;55.90
80743;SHT31;70142;50.894;6.052;2023-08-07T12:55:28;19.71;56.22
80743;SHT31;70142;50.894;6.052;2023-08-07T12:58:04;19.59;56.18
80743;SHT31;70142;50.894;6.052;2023-08-07T13:00:37;19.72;55.50
80743;SHT31;70142;50.894;6.052;2023-08-07T13:03:11;19.57;55.74
80743;SHT31;70142;50.894;6.052;2023-08-07T13:05:45;19.47;57.09
80743;SHT31;70142;50.894;6.052;2023-08-07T13:08:18;19.27;56.59
80743;SHT31;70142;50.894;6.052;2023-08-07T13:10:51;19.31;56.68
80743;SHT31;70142;50.894;6.052;2023-08-07T13:13:27;19.17;57.80
80743;SHT31;70142;50.894;6.052;2023-08-07T13:16:00;19.06;58.19
80743;SHT31;70142;50.894;6.052;2023-08-07T13:18:34;19.14;57.03
80743;SHT31;70142;50.894;6.052;2023-08-07T13:21:07;19.23;57.02
80743;SHT31;70142;50.894;6.052;2023-08-07T13:23:40;19.88;56.15
80743;SHT31;70142;50.894;6.052;2023-08-07T13:26:16;20.19;56.80
80743;SHT31;70142;50.894;6.052;2023-08-07T13:28:51;20.52;55.19
80743;SHT31;70142;50.894;6.052;2023-08-07T13:31:24;21.35;52.87
80743;SHT31;70142;50.894;6.052;2023-08-07T13:33:57;22.00;50.56
80743;SHT31;70142;50.894;6.052;2023-08-07T13:36:30;22.20;47.89
80743;SHT31;70142;50.894;6.052;2023-08-07T13:39:04;22.54;47.42
80743;SHT31;70142;50.894;6.052;2023-08-07T13:41:37;22.27;48.73
80743;SHT31;70142;50.894;6.052;2023-08-07T13:44:12;22.17;46.88
80743;SHT31;70142;50.894;6.052;2023-08-07T13:46:51;22.14;47.38
80743;SHT31;70142;50.894;6.052;2023-08-07T13:49:24;21.98;47.60
80743;SHT31;70142;50.894;6.052;2023-08-07T13:51:57;21.39;49.01
80743;SHT31;70142;50.894;6.052;2023-08-07T13:54:30;21.56;49.39
80743;SHT31;70142;50.894;6.052;2023-08-07T13:57:05;21.27;48.57
80743;SHT31;70142;50.894;6.052;2023-08-07T13:59:40;21.24;48.95
80743;SHT31;70142;50.894;6.052;2023-08-07T14:02:13;20.60;51.19
80743;SHT31;70142;50.894;6.052;2023-08-07T14:04:46;20.87;50.05
80743;SHT31;70142;50.894;6.052;2023-08-07T14:07:19;21.48;49.95
80743;SHT31;70142;50.894;6.052;2023-08-07T14:09:52;21.32;49.06
80743;SHT31;70142;50.894;6.052;2023-08-07T14:12:25;21.38;48.19
80743;SHT31;70142;50.894;6.052;2023-08-07T14:15:00;22.09;48.26
80743;SHT31;70142;50.894;6.052;2023-08-07T14:17:33;22.27;47.28
80743;SHT31;70142;50.894;6.052;2023-08-07T14:20:07;22.33;46.81
80743;SHT31;70142;50.894;6.052;2023-08-07T14:22:42;22.72;46.46
80743;SHT31;70142;50.894;6.052;2023-08-07T14:25:15;22.65;47.34
80743;SHT31;70142;50.894;6.052;2023-08-07T14:27:49;22.26;48.50
80743;SHT31;70142;50.894;6.052;2023-08-07T14:30:23;21.48;50.12
80743;SHT31;70142;50.894;6.052;2023-08-07T14:32:59;20.90;50.62
80743;SHT31;70142;50.894;6.052;2023-08-07T14:35:32;20.33;50.58
80743;SHT31;70142;50.894;6.052;2023-08-07T14:38:05;20.00;51.47
80743;SHT31;70142;50.894;6.052;2023-08-07T14:40:38;19.93;51.78
80743;SHT31;70142;50.894;6.052;2023-08-07T14:43:13;19.92;52.33
80743;SHT31;70142;50.894;6.052;2023-08-07T14:45:47;19.83;52.60
80743;SHT31;70142;50.894;6.052;2023-08-07T14:48:21;20.04;52.58
80743;SHT31;70142;50.894;6.052;2023-08-07T14:50:54;19.99;52.11
80743;SHT31;70142;50.894;6.052;2023-08-07T14:53:29;20.04;52.16
80743;SHT31;70142;50.894;6.052;2023-08-07T14:56:04;20.08;52.25
80743;SHT31;70142;50.894;6.052;2023-08-07T14:58:38;20.50;51.52
80743;SHT31;70142;50.894;6.052;2023-08-07T15:01:12;20.52;51.01
80743;SHT31;70142;50.894;6.052;2023-08-07T15:03:45;20.85;51.21
80743;SHT31;70142;50.894;6.052;2023-08-07T15:06:18;21.95;49.81
80743;SHT31;70142;50.894;6.052;2023-08-07T15:08:53;22.95;47.22
80743;SHT31;70142;50.894;6.052;2023-08-07T15:11:26;23.04;46.88
80743;SHT31;70142;50.894;6.052;2023-08-07T15:14:00;22.88;46.46
80743;SHT31;70142;50.894;6.052;2023-08-07T15:16:37;22.37;47.93
80743;SHT31;70142;50.894;6.052;2023-08-07T15:19:11;21.61;49.75
80743;SHT31;70142;50.894;6.052;2023-08-07T15:21:44;21.78;49.90
80743;SHT31;70142;50.894;6.052;2023-08-07T15:24:17;21.44;49.06
80743;SHT31;70142;50.894;6.052;2023-08-07T15:26:50;20.83;50.62
80743;SHT31;70142;50.894;6.052;2023-08-07T15:29:23;20.59;50.91
80743;SHT31;70142;50.894;6.052;2023-08-07T15:31:58;20.26;52.56
80743;SHT31;70142;50.894;6.052;2023-08-07T15:34:32;20.18;52.31
80743;SHT31;70142;50.894;6.052;2023-08-07T15:37:05;20.00;53.13
80743;SHT31;70142;50.894;6.052;2023-08-07T15:39:38;19.98;52.67
80743;SHT31;70142;50.894;6.052;2023-08-07T15:42:12;20.09;53.50
80743;SHT31;70142;50.894;6.052;2023-08-07T15:44:45;20.12;53.43
80743;SHT31;70142;50.894;6.052;2023-08-07T15:47:19;20.19;53.05
80743;SHT31;70142;50.894;6.052;2023-08-07T15:49:53;20.39;52.86
80743;SHT31;70142;50.894;6.052;2023-08-07T15:52:26;20.73;52.11
80743;SHT31;70142;50.894;6.052;2023-08-07T15:54:59;20.83;52.89
80743;SHT31;70142;50.894;6.052;2023-08-07T15:57:33;20.36;52.34
80743;SHT31;70142;50.894;6.052;2023-08-07T16:00:07;20.20;53.45
80743;SHT31;70142;50.894;6.052;2023-08-07T16:02:45;20.20;52.97
80743;SHT31;70142;50.894;6.052;2023-08-07T16:05:19;19.93;54.42
80743;SHT31;70142;50.894;6.052;2023-08-07T16:07:52;20.42;53.41
80743;SHT31;70142;50.894;6.052;2023-08-07T16:10:26;20.44;54.00
80743;SHT31;70142;50.894;6.052;2023-08-07T16:12:59;20.53;53.42
80743;SHT31;70142;50.894;6.052;2023-08-07T16:15:32;20.97;52.40